sensor_id;sensor_type;location;lat;lon;timestamp;temperature;humidity
29431;DHT22;16404;49.902;10.074;2023-04-15T00:01:48;10.50;57.60
29431;DHT22;16404;49.902;10.074;2023-04-15T00:04:33;10.50;57.90
29431;DHT22;16404;49.902;10.074;2023-04-15T00:07:18;10.50;58.20
29431;DHT22;16404;49.902;10.074;2023-04-15T00:10:02;10.50;58.30
29431;DHT22;16404;49.902;10.074;2023-04-15T00:12:48;10.50;58.40
29431;DHT22;16404;49.902;10.074;2023-04-15T00:15:33;10.50;58.30
29431;DHT22;16404;49.902;10.074;2023-04-15T00:18:17;10.40;58.50
29431;DHT22;16404;49.902;10.074;2023-04-15T00:21:03;10.40;58.80
29431;DHT22;16404;49.902;10.074;2023-04-15T00:23:48;10.40;58.90
29431;DHT22;16404;49.902;10.074;2023-04-15T00:26:35;10.40;59.00
29431;DHT22;16404;49.902;10.074;2023-04-15T00:29:20;10.40;59.20
29431;DHT22;16404;49.902;10.074;2023-04-15T00:32:04;10.40;59.10
29431;DHT22;16404;49.902;10.074;2023-04-15T00:34:50;10.50;58.90
29431;DHT22;16404;49.902;10.074;2023-04-15T00:37:35;10.50;58.80
29431;DHT22;16404;49.902;10.074;2023-04-15T00:40:20;10.50;58.60
29431;DHT22;16404;49.902;10.074;2023-04-15T00:43:06;10.50;58.70
29431;DHT22;16404;49.902;10.074;2023-04-15T00:45:52;10.50;58.60
29431;DHT22;16404;49.902;10.074;2023-04-15T00:48:37;10.50;58.70
29431;DHT22;16404;49.902;10.074;2023-04-15T00:51:23;10.50;58.80
29431;DHT22;16404;49.902;10.074;2023-04-15T00:54:09;10.50;58.80
29431;DHT22;16404;49.902;10.074;2023-04-15T00:56:54;10.50;58.90
29431;DHT22;16404;49.902;10.074;2023-04-15T00:59:39;10.60;58.80
29431;DHT22;16404;49.902;10.074;2023-04-15T01:02:24;10.60;58.10
29431;DHT22;16404;49.902;10.074;2023-04-15T01:05:09;10.50;57.80
29431;DHT22;16404;49.902;10.074;2023-04-15T01:07:54;10.50;57.50
29431;DHT22;16404;49.902;10.074;2023-04-15T01:10:39;10.50;57.60
29431;DHT22;16404;49.902;10.074;2023-04-15T01:13:23;10.60;57.60
29431;DHT22;16404;49.902;10.074;2023-04-15T01:16:08;10.50;57.50
29431;DHT22;16404;49.902;10.074;2023-04-15T01:18:53;10.50;57.50
29431;DHT22;16404;49.902;10.074;2023-04-15T01:21:38;10.50;57.70
29431;DHT22;16404;49.902;10.074;2023-04-15T01:24:25;10.50;58.10
29431;DHT22;16404;49.902;10.074;2023-04-15T01:27:11;10.50;58.40
29431;DHT22;16404;49.902;10.074;2023-04-15T01:29:56;10.50;58.30
29431;DHT22;16404;49.902;10.074;2023-04-15T01:32:41;10.60;58.40
29431;DHT22;16404;49.902;10.074;2023-04-15T01:35:26;10.60;58.20
29431;DHT22;16404;49.902;10.074;2023-04-15T01:38:10;10.60;57.60
29431;DHT22;16404;49.902;10.074;2023-04-15T01:40:55;10.50;57.30
29431;DHT22;16404;49.902;10.074;2023-04-15T01:43:42;10.40;57.70
29431;DHT22;16404;49.902;10.074;2023-04-15T01:46:27;10.50;58.30
29431;DHT22;16404;49.902;10.074;2023-04-15T01:49:11;10.50;58.30
29431;DHT22;16404;49.902;10.074;2023-04-15T01:51:56;10.60;57.90
29431;DHT22;16404;49.902;10.074;2023-04-15T01:54:40;10.60;57.60
29431;DHT22;16404;49.902;10.074;2023-04-15T01:57:25;10.60;57.60
29431;DHT22;16404;49.902;10.074;2023-04-15T02:00:10;10.60;57.80
29431;DHT22;16404;49.902;10.074;2023-04-15T02:03:00;10.50;58.00
29431;DHT22;16404;49.902;10.074;2023-04-15T02:05:45;10.60;58.00
29431;DHT22;16404;49.902;10.074;2023-04-15T02:08:29;10.50;58.10
29431;DHT22;16404;49.902;10.074;2023-04-15T02:11:14;10.60;58.10
29431;DHT22;16404;49.902;10.074;2023-04-15T02:13:58;10.60;58.00
29431;DHT22;16404;49.902;10.074;2023-04-15T02:16:43;10.60;58.10
29431;DHT22;16404;49.902;10.074;2023-04-15T02:19:28;10.60;58.50
29431;DHT22;16404;49.902;10.074;2023-04-15T02:22:13;10.60;58.70
29431;DHT22;16404;49.902;10.074;2023-04-15T02:25:04;10.60;58.90
29431;DHT22;16404;49.902;10.074;2023-04-15T02:27:49;10.60;59.30
29431;DHT22;16404;49.902;10.074;2023-04-15T02:30:34;10.60;59.30
29431;DHT22;16404;49.902;10.074;2023-04-15T02:33:20;10.60;60.10
29431;DHT22;16404;49.902;10.074;2023-04-15T02:36:05;10.60;59.70
29431;DHT22;16404;49.902;10.074;2023-04-15T02:38:50;10.70;59.50
29431;DHT22;16404;49.902;10.074;2023-04-15T02:41:35;10.70;59.40
29431;DHT22;16404;49.902;10.074;2023-04-15T02:44:21;10.70;59.70
29431;DHT22;16404;49.902;10.074;2023-04-15T02:47:10;10.70;59.80
29431;DHT22;16404;49.902;10.074;2023-04-15T02:49:55;10.70;59.80
29431;DHT22;16404;49.902;10.074;2023-04-15T02:52:40;10.70;59.90
29431;DHT22;16404;49.902;10.074;2023-04-15T02:55:25;10.70;59.90
29431;DHT22;16404;49.902;10.074;2023-04-15T02:58:10;10.70;59.90
29431;DHT22;16404;49.902;10.074;2023-04-15T03:00:54;10.70;59.80
29431;DHT22;16404;49.902;10.074;2023-04-15T03:03:39;10.70;59.70
29431;DHT22;16404;49.902;10.074;2023-04-15T03:06:23;10.80;59.60
29431;DHT22;16404;49.902;10.074;2023-04-15T03:09:08;10.80;59.30
29431;DHT22;16404;49.902;10.074;2023-04-15T03:11:54;10.70;59.20
29431;DHT22;16404;49.902;10.074;2023-04-15T03:14:40;10.70;59.10
29431;DHT22;16404;49.902;10.074;2023-04-15T03:17:25;10.70;59.10
29431;DHT22;16404;49.902;10.074;2023-04-15T03:20:10;10.70;59.00
29431;DHT22;16404;49.902;10.074;2023-04-15T03:22:55;10.70;59.00
29431;DHT22;16404;49.902;10.074;2023-04-15T03:25:41;10.70;58.80
29431;DHT22;16404;49.902;10.074;2023-04-15T03:28:25;10.70;58.70
29431;DHT22;16404;49.902;10.074;2023-04-15T03:31:12;10.60;58.60
29431;DHT22;16404;49.902;10.074;2023-04-15T03:33:57;10.60;58.40
29431;DHT22;16404;49.902;10.074;2023-04-15T03:36:41;10.50;58.50
29431;DHT22;16404;49.902;10.074;2023-04-15T03:39:26;10.50;58.60
29431;DHT22;16404;49.902;10.074;2023-04-15T03:42:10;10.50;58.70
29431;DHT22;16404;49.902;10.074;2023-04-15T03:44:55;10.50;58.70
29431;DHT22;16404;49.902;10.074;2023-04-15T03:47:40;10.50;58.70
29431;DHT22;16404;49.902;10.074;2023-04-15T03:50:24;10.50;58.80
29431;DHT22;16404;49.902;10.074;2023-04-15T03:53:09;10.50;58.70
29431;DHT22;16404;49.902;10.074;2023-04-15T03:55:53;10.40;58.50
29431;DHT22;16404;49.902;10.074;2023-04-15T03:58:38;10.40;58.50
29431;DHT22;16404;49.902;10.074;2023-04-15T04:01:22;10.30;59.00
29431;DHT22;16404;49.902;10.074;2023-04-15T04:04:07;10.30;58.90
29431;DHT22;16404;49.902;10.074;2023-04-15T04:06:52;10.30;58.90
29431;DHT22;16404;49.902;10.074;2023-04-15T04:09:37;10.20;59.20
29431;DHT22;16404;49.902;10.074;2023-04-15T04:12:23;10.20;59.20
29431;DHT22;16404;49.902;10.074;2023-04-15T04:15:08;10.20;59.30
29431;DHT22;16404;49.902;10.074;2023-04-15T04:17:53;10.30;59.30
29431;DHT22;16404;49.902;10.074;2023-04-15T04:20:37;10.30;58.70
29431;DHT22;16404;49.902;10.074;2023-04-15T04:23:22;10.30;58.10
29431;DHT22;16404;49.902;10.074;2023-04-15T04:26:07;10.20;57.60
29431;DHT22;16404;49.902;10.074;2023-04-15T04:28:51;10.20;57.50
29431;DHT22;16404;49.902;10.074;2023-04-15T04:31:36;10.20;57.50
29431;DHT22;16404;49.902;10.074;2023-04-15T04:34:20;10.20;57.50
29431;DHT22;16404;49.902;10.074;2023-04-15T04:37:05;10.20;57.40
29431;DHT22;16404;49.902;10.074;2023-04-15T04:39:50;10.20;57.80
29431;DHT22;16404;49.902;10.074;2023-04-15T04:42:34;10.30;58.10
29431;DHT22;16404;49.902;10.074;2023-04-15T04:45:19;10.20;58.40
29431;DHT22;16404;49.902;10.074;2023-04-15T04:48:04;10.20;58.70
29431;DHT22;16404;49.902;10.074;2023-04-15T04:50:49;10.30;58.60
29431;DHT22;16404;49.902;10.074;2023-04-15T04:53:34;10.30;58.60
29431;DHT22;16404;49.902;10.074;2023-04-15T04:56:20;10.30;58.80
29431;DHT22;16404;49.902;10.074;2023-04-15T04:59:05;10.30;58.90
29431;DHT22;16404;49.902;10.074;2023-04-15T05:01:51;10.40;58.90
29431;DHT22;16404;49.902;10.074;2023-04-15T05:04:35;10.40;58.70
29431;DHT22;16404;49.902;10.074;2023-04-15T05:07:20;10.40;58.70
29431;DHT22;16404;49.902;10.074;2023-04-15T05:10:06;10.50;58.90
29431;DHT22;16404;49.902;10.074;2023-04-15T05:12:50;10.50;59.10
29431;DHT22;16404;49.902;10.074;2023-04-15T05:15:35;10.60;59.40
29431;DHT22;16404;49.902;10.074;2023-04-15T05:18:20;10.60;59.60
29431;DHT22;16404;49.902;10.074;2023-04-15T05:21:05;10.60;59.60
29431;DHT22;16404;49.902;10.074;2023-04-15T05:23:49;10.60;59.60
29431;DHT22;16404;49.902;10.074;2023-04-15T05:26:34;10.70;59.40
29431;DHT22;16404;49.902;10.074;2023-04-15T05:29:18;10.70;59.50
29431;DHT22;16404;49.902;10.074;2023-04-15T05:32:03;10.80;60.00
29431;DHT22;16404;49.902;10.074;2023-04-15T05:34:48;10.80;60.10
29431;DHT22;16404;49.902;10.074;2023-04-15T05:37:32;10.90;60.30
29431;DHT22;16404;49.902;10.074;2023-04-15T05:40:17;10.90;60.40
29431;DHT22;16404;49.902;10.074;2023-04-15T05:43:02;11.00;60.30
29431;DHT22;16404;49.902;10.074;2023-04-15T05:45:46;11.10;60.10
29431;DHT22;16404;49.902;10.074;2023-04-15T05:48:31;11.10;59.90
29431;DHT22;16404;49.902;10.074;2023-04-15T05:51:15;11.20;60.10
29431;DHT22;16404;49.902;10.074;2023-04-15T05:54:00;11.20;60.00
29431;DHT22;16404;49.902;10.074;2023-04-15T05:56:44;11.30;59.90
29431;DHT22;16404;49.902;10.074;2023-04-15T05:59:29;11.40;59.90
29431;DHT22;16404;49.902;10.074;2023-04-15T06:02:14;11.50;59.90
29431;DHT22;16404;49.902;10.074;2023-04-15T06:04:58;11.60;60.10
29431;DHT22;16404;49.902;10.074;2023-04-15T06:07:44;11.70;60.30
29431;DHT22;16404;49.902;10.074;2023-04-15T06:10:28;11.80;60.40
29431;DHT22;16404;49.902;10.074;2023-04-15T06:13:13;11.90;60.30
29431;DHT22;16404;49.902;10.074;2023-04-15T06:15:57;12.00;60.00
29431;DHT22;16404;49.902;10.074;2023-04-15T06:18:43;12.10;59.80
29431;DHT22;16404;49.902;10.074;2023-04-15T06:21:27;12.10;60.00
29431;DHT22;16404;49.902;10.074;2023-04-15T06:24:12;12.20;60.10
29431;DHT22;16404;49.902;10.074;2023-04-15T06:26:57;12.30;59.90
29431;DHT22;16404;49.902;10.074;2023-04-15T06:29:41;12.40;59.70
29431;DHT22;16404;49.902;10.074;2023-04-15T06:32:26;12.50;59.90
29431;DHT22;16404;49.902;10.074;2023-04-15T06:35:11;12.60;59.90
29431;DHT22;16404;49.902;10.074;2023-04-15T06:37:55;12.80;59.70
29431;DHT22;16404;49.902;10.074;2023-04-15T06:40:40;12.90;59.60
29431;DHT22;16404;49.902;10.074;2023-04-15T06:43:25;13.00;59.60
29431;DHT22;16404;49.902;10.074;2023-04-15T06:46:09;13.20;59.50
29431;DHT22;16404;49.902;10.074;2023-04-15T06:48:54;13.30;58.90
29431;DHT22;16404;49.902;10.074;2023-04-15T06:51:39;13.30;58.70
29431;DHT22;16404;49.902;10.074;2023-04-15T06:54:23;13.40;58.50
29431;DHT22;16404;49.902;10.074;2023-04-15T06:57:08;13.50;58.30
29431;DHT22;16404;49.902;10.074;2023-04-15T06:59:53;13.60;58.10
29431;DHT22;16404;49.902;10.074;2023-04-15T07:02:37;13.60;57.80
29431;DHT22;16404;49.902;10.074;2023-04-15T07:05:22;13.70;57.50
29431;DHT22;16404;49.902;10.074;2023-04-15T07:08:07;13.70;57.30
29431;DHT22;16404;49.902;10.074;2023-04-15T07:10:52;13.80;57.10
29431;DHT22;16404;49.902;10.074;2023-04-15T07:13:37;13.80;56.80
29431;DHT22;16404;49.902;10.074;2023-04-15T07:16:21;13.90;56.90
29431;DHT22;16404;49.902;10.074;2023-04-15T07:19:06;14.00;57.20
29431;DHT22;16404;49.902;10.074;2023-04-15T07:21:50;14.00;56.50
29431;DHT22;16404;49.902;10.074;2023-04-15T07:24:35;14.00;56.40
29431;DHT22;16404;49.902;10.074;2023-04-15T07:27:19;14.10;56.20
29431;DHT22;16404;49.902;10.074;2023-04-15T07:30:04;14.10;55.90
29431;DHT22;16404;49.902;10.074;2023-04-15T07:32:49;14.20;55.80
29431;DHT22;16404;49.902;10.074;2023-04-15T07:35:34;14.30;55.50
29431;DHT22;16404;49.902;10.074;2023-04-15T07:38:18;14.30;55.50
29431;DHT22;16404;49.902;10.074;2023-04-15T07:41:03;14.40;55.10
29431;DHT22;16404;49.902;10.074;2023-04-15T07:43:48;14.50;55.00
29431;DHT22;16404;49.902;10.074;2023-04-15T07:46:33;14.60;54.90
29431;DHT22;16404;49.902;10.074;2023-04-15T07:49:17;14.60;54.70
29431;DHT22;16404;49.902;10.074;2023-04-15T07:52:04;14.70;54.70
29431;DHT22;16404;49.902;10.074;2023-04-15T07:54:48;14.80;54.50
29431;DHT22;16404;49.902;10.074;2023-04-15T07:57:34;14.80;54.40
29431;DHT22;16404;49.902;10.074;2023-04-15T08:00:18;14.80;54.20
29431;DHT22;16404;49.902;10.074;2023-04-15T08:03:03;14.90;53.90
29431;DHT22;16404;49.902;10.074;2023-04-15T08:05:47;14.90;53.70
29431;DHT22;16404;49.902;10.074;2023-04-15T08:08:32;15.00;53.70
29431;DHT22;16404;49.902;10.074;2023-04-15T08:11:16;15.00;53.70
29431;DHT22;16404;49.902;10.074;2023-04-15T08:14:01;15.00;53.50
29431;DHT22;16404;49.902;10.074;2023-04-15T08:16:46;15.00;53.20
29431;DHT22;16404;49.902;10.074;2023-04-15T08:19:30;15.10;53.40
29431;DHT22;16404;49.902;10.074;2023-04-15T08:22:15;15.00;53.40
29431;DHT22;16404;49.902;10.074;2023-04-15T08:25:00;15.10;53.30
29431;DHT22;16404;49.902;10.074;2023-04-15T08:27:44;15.10;53.00
29431;DHT22;16404;49.902;10.074;2023-04-15T08:30:29;15.10;53.00
29431;DHT22;16404;49.902;10.074;2023-04-15T08:33:14;15.20;52.90
29431;DHT22;16404;49.902;10.074;2023-04-15T08:35:58;15.20;53.00
29431;DHT22;16404;49.902;10.074;2023-04-15T08:38:43;15.20;53.00
29431;DHT22;16404;49.902;10.074;2023-04-15T08:41:40;15.20;53.00
29431;DHT22;16404;49.902;10.074;2023-04-15T08:44:32;15.20;53.10
29431;DHT22;16404;49.902;10.074;2023-04-15T08:47:19;15.30;53.60
29431;DHT22;16404;49.902;10.074;2023-04-15T08:50:08;15.30;53.70
29431;DHT22;16404;49.902;10.074;2023-04-15T08:53:03;15.30;54.00
29431;DHT22;16404;49.902;10.074;2023-04-15T08:55:51;15.30;53.50
29431;DHT22;16404;49.902;10.074;2023-04-15T08:58:37;15.10;53.30
29431;DHT22;16404;49.902;10.074;2023-04-15T09:01:22;15.00;53.30
29431;DHT22;16404;49.902;10.074;2023-04-15T09:04:07;14.90;53.90
29431;DHT22;16404;49.902;10.074;2023-04-15T09:06:51;14.70;54.10
29431;DHT22;16404;49.902;10.074;2023-04-15T09:09:36;14.50;54.80
29431;DHT22;16404;49.902;10.074;2023-04-15T09:12:23;14.40;55.10
29431;DHT22;16404;49.902;10.074;2023-04-15T09:15:10;14.20;55.40
29431;DHT22;16404;49.902;10.074;2023-04-15T09:17:56;13.90;55.60
29431;DHT22;16404;49.902;10.074;2023-04-15T09:20:41;13.70;56.00
29431;DHT22;16404;49.902;10.074;2023-04-15T09:23:26;13.60;56.50
29431;DHT22;16404;49.902;10.074;2023-04-15T09:26:11;13.50;56.80
29431;DHT22;16404;49.902;10.074;2023-04-15T09:31:50;13.20;58.10
29431;DHT22;16404;49.902;10.074;2023-04-15T09:34:35;13.20;58.50
29431;DHT22;16404;49.902;10.074;2023-04-15T09:37:34;13.20;59.30
29431;DHT22;16404;49.902;10.074;2023-04-15T09:40:34;13.20;59.80
29431;DHT22;16404;49.902;10.074;2023-04-15T09:43:19;13.20;59.50
29431;DHT22;16404;49.902;10.074;2023-04-15T09:46:04;13.20;59.60
29431;DHT22;16404;49.902;10.074;2023-04-15T09:49:06;13.30;59.50
29431;DHT22;16404;49.902;10.074;2023-04-15T09:51:58;13.20;59.60
29431;DHT22;16404;49.902;10.074;2023-04-15T09:54:44;13.10;59.50
29431;DHT22;16404;49.902;10.074;2023-04-15T09:57:36;13.10;59.60
29431;DHT22;16404;49.902;10.074;2023-04-15T10:00:21;13.00;59.70
29431;DHT22;16404;49.902;10.074;2023-04-15T10:03:05;12.90;59.70
29431;DHT22;16404;49.902;10.074;2023-04-15T10:05:52;12.90;60.00
29431;DHT22;16404;49.902;10.074;2023-04-15T10:08:37;12.80;60.00
29431;DHT22;16404;49.902;10.074;2023-04-15T10:11:23;12.70;60.50
29431;DHT22;16404;49.902;10.074;2023-04-15T10:14:08;12.70;60.60
29431;DHT22;16404;49.902;10.074;2023-04-15T10:16:55;12.70;61.00
29431;DHT22;16404;49.902;10.074;2023-04-15T10:19:41;12.80;61.50
29431;DHT22;16404;49.902;10.074;2023-04-15T10:22:27;12.80;61.70
29431;DHT22;16404;49.902;10.074;2023-04-15T10:25:12;12.90;62.20
29431;DHT22;16404;49.902;10.074;2023-04-15T10:27:59;13.00;62.30
29431;DHT22;16404;49.902;10.074;2023-04-15T10:30:43;13.00;62.40
29431;DHT22;16404;49.902;10.074;2023-04-15T10:33:29;13.20;62.00
29431;DHT22;16404;49.902;10.074;2023-04-15T10:36:13;13.20;61.90
29431;DHT22;16404;49.902;10.074;2023-04-15T10:38:59;13.30;61.70
29431;DHT22;16404;49.902;10.074;2023-04-15T10:41:43;13.30;61.40
29431;DHT22;16404;49.902;10.074;2023-04-15T10:44:28;13.30;61.60
29431;DHT22;16404;49.902;10.074;2023-04-15T10:47:18;13.30;61.90
29431;DHT22;16404;49.902;10.074;2023-04-15T10:50:03;13.30;62.20
29431;DHT22;16404;49.902;10.074;2023-04-15T10:52:50;13.30;62.20
29431;DHT22;16404;49.902;10.074;2023-04-15T10:55:38;13.40;62.70
29431;DHT22;16404;49.902;10.074;2023-04-15T10:58:43;13.40;62.80
29431;DHT22;16404;49.902;10.074;2023-04-15T11:01:56;13.50;63.10
29431;DHT22;16404;49.902;10.074;2023-04-15T11:04:57;13.60;62.80
29431;DHT22;16404;49.902;10.074;2023-04-15T11:07:56;13.60;62.70
29431;DHT22;16404;49.902;10.074;2023-04-15T11:13:31;13.70;62.80
29431;DHT22;16404;49.902;10.074;2023-04-15T11:16:17;13.70;62.60
29431;DHT22;16404;49.902;10.074;2023-04-15T11:19:01;13.70;62.10
29431;DHT22;16404;49.902;10.074;2023-04-15T11:21:47;13.60;62.30
29431;DHT22;16404;49.902;10.074;2023-04-15T11:24:31;13.60;62.40
29431;DHT22;16404;49.902;10.074;2023-04-15T11:27:20;13.60;62.50
29431;DHT22;16404;49.902;10.074;2023-04-15T11:30:22;13.50;62.50
29431;DHT22;16404;49.902;10.074;2023-04-15T11:33:08;13.40;62.70
29431;DHT22;16404;49.902;10.074;2023-04-15T11:35:53;13.40;62.70
29431;DHT22;16404;49.902;10.074;2023-04-15T11:38:41;13.40;62.80
29431;DHT22;16404;49.902;10.074;2023-04-15T11:41:27;13.40;62.90
29431;DHT22;16404;49.902;10.074;2023-04-15T11:44:18;13.40;62.80
29431;DHT22;16404;49.902;10.074;2023-04-15T11:47:24;13.40;63.10
29431;DHT22;16404;49.902;10.074;2023-04-15T11:50:15;13.40;63.20
29431;DHT22;16404;49.902;10.074;2023-04-15T11:53:04;13.50;62.90
29431;DHT22;16404;49.902;10.074;2023-04-15T11:55:51;13.50;63.40
29431;DHT22;16404;49.902;10.074;2023-04-15T11:58:37;13.50;62.80
29431;DHT22;16404;49.902;10.074;2023-04-15T12:01:36;13.50;62.80
29431;DHT22;16404;49.902;10.074;2023-04-15T12:04:22;13.50;62.80
29431;DHT22;16404;49.902;10.074;2023-04-15T12:07:07;13.50;62.80
29431;DHT22;16404;49.902;10.074;2023-04-15T12:09:56;13.60;63.00
29431;DHT22;16404;49.902;10.074;2023-04-15T12:12:41;13.60;62.60
29431;DHT22;16404;49.902;10.074;2023-04-15T12:15:25;13.60;62.30
29431;DHT22;16404;49.902;10.074;2023-04-15T12:18:18;13.60;62.50
29431;DHT22;16404;49.902;10.074;2023-04-15T12:21:10;13.60;62.70
29431;DHT22;16404;49.902;10.074;2023-04-15T12:23:56;13.60;62.90
29431;DHT22;16404;49.902;10.074;2023-04-15T12:26:53;13.60;62.70
29431;DHT22;16404;49.902;10.074;2023-04-15T12:29:39;13.60;62.80
29431;DHT22;16404;49.902;10.074;2023-04-15T12:32:24;13.50;62.70
29431;DHT22;16404;49.902;10.074;2023-04-15T12:35:08;13.50;62.90
29431;DHT22;16404;49.902;10.074;2023-04-15T12:37:53;13.40;63.10
29431;DHT22;16404;49.902;10.074;2023-04-15T12:40:37;13.30;63.00
29431;DHT22;16404;49.902;10.074;2023-04-15T12:43:22;13.20;63.30
29431;DHT22;16404;49.902;10.074;2023-04-15T12:46:07;13.20;63.70
29431;DHT22;16404;49.902;10.074;2023-04-15T12:48:51;13.20;63.90
29431;DHT22;16404;49.902;10.074;2023-04-15T12:51:36;13.30;64.20
29431;DHT22;16404;49.902;10.074;2023-04-15T12:54:21;13.30;64.20
29431;DHT22;16404;49.902;10.074;2023-04-15T12:57:06;13.30;64.60
29431;DHT22;16404;49.902;10.074;2023-04-15T12:59:50;13.30;64.50
29431;DHT22;16404;49.902;10.074;2023-04-15T13:02:35;13.40;64.70
29431;DHT22;16404;49.902;10.074;2023-04-15T13:05:19;13.50;65.20
29431;DHT22;16404;49.902;10.074;2023-04-15T13:08:05;13.60;65.00
29431;DHT22;16404;49.902;10.074;2023-04-15T13:10:50;13.70;64.70
29431;DHT22;16404;49.902;10.074;2023-04-15T13:13:34;13.80;64.80
29431;DHT22;16404;49.902;10.074;2023-04-15T13:16:19;13.80;64.90
29431;DHT22;16404;49.902;10.074;2023-04-15T13:19:04;13.80;65.20
29431;DHT22;16404;49.902;10.074;2023-04-15T13:21:49;13.90;65.00
29431;DHT22;16404;49.902;10.074;2023-04-15T13:24:34;14.00;65.00
29431;DHT22;16404;49.902;10.074;2023-04-15T13:27:18;14.00;65.10
29431;DHT22;16404;49.902;10.074;2023-04-15T13:30:04;14.10;64.80
29431;DHT22;16404;49.902;10.074;2023-04-15T13:32:49;14.20;64.30
29431;DHT22;16404;49.902;10.074;2023-04-15T13:35:34;14.30;63.60
29431;DHT22;16404;49.902;10.074;2023-04-15T13:38:19;14.30;63.30
29431;DHT22;16404;49.902;10.074;2023-04-15T13:41:03;14.30;63.10
29431;DHT22;16404;49.902;10.074;2023-04-15T13:43:48;14.30;63.10
29431;DHT22;16404;49.902;10.074;2023-04-15T13:46:33;14.20;62.90
29431;DHT22;16404;49.902;10.074;2023-04-15T13:49:17;14.20;62.70
29431;DHT22;16404;49.902;10.074;2023-04-15T13:52:02;14.10;62.80
29431;DHT22;16404;49.902;10.074;2023-04-15T13:54:47;14.10;62.90
29431;DHT22;16404;49.902;10.074;2023-04-15T13:57:31;14.00;63.10
29431;DHT22;16404;49.902;10.074;2023-04-15T14:00:16;14.00;63.20
29431;DHT22;16404;49.902;10.074;2023-04-15T14:03:01;13.90;63.20
29431;DHT22;16404;49.902;10.074;2023-04-15T14:05:45;13.90;63.40
29431;DHT22;16404;49.902;10.074;2023-04-15T14:08:30;13.90;63.50
29431;DHT22;16404;49.902;10.074;2023-04-15T14:11:14;13.90;63.50
29431;DHT22;16404;49.902;10.074;2023-04-15T14:13:59;13.80;63.40
29431;DHT22;16404;49.902;10.074;2023-04-15T14:16:43;13.80;63.40
29431;DHT22;16404;49.902;10.074;2023-04-15T14:19:29;13.80;63.50
29431;DHT22;16404;49.902;10.074;2023-04-15T14:22:14;13.80;63.50
29431;DHT22;16404;49.902;10.074;2023-04-15T14:24:59;13.70;63.30
29431;DHT22;16404;49.902;10.074;2023-04-15T14:27:43;13.60;63.50
29431;DHT22;16404;49.902;10.074;2023-04-15T14:30:28;13.60;63.80
29431;DHT22;16404;49.902;10.074;2023-04-15T14:33:13;13.60;64.10
29431;DHT22;16404;49.902;10.074;2023-04-15T14:35:57;13.50;64.10
29431;DHT22;16404;49.902;10.074;2023-04-15T14:38:41;13.50;64.30
29431;DHT22;16404;49.902;10.074;2023-04-15T14:41:26;13.50;64.60
29431;DHT22;16404;49.902;10.074;2023-04-15T14:44:11;13.40;64.60
29431;DHT22;16404;49.902;10.074;2023-04-15T14:46:55;13.40;64.60
29431;DHT22;16404;49.902;10.074;2023-04-15T14:49:40;13.40;65.00
29431;DHT22;16404;49.902;10.074;2023-04-15T14:52:25;13.40;64.90
29431;DHT22;16404;49.902;10.074;2023-04-15T14:55:10;13.40;65.10
29431;DHT22;16404;49.902;10.074;2023-04-15T14:57:55;13.30;65.20
29431;DHT22;16404;49.902;10.074;2023-04-15T15:00:40;13.30;65.30
29431;DHT22;16404;49.902;10.074;2023-04-15T15:03:27;13.30;65.50
29431;DHT22;16404;49.902;10.074;2023-04-15T15:06:12;13.30;65.50
29431;DHT22;16404;49.902;10.074;2023-04-15T15:08:56;13.30;66.20
29431;DHT22;16404;49.902;10.074;2023-04-15T15:11:41;13.30;65.60
29431;DHT22;16404;49.902;10.074;2023-04-15T15:14:25;13.40;65.70
29431;DHT22;16404;49.902;10.074;2023-04-15T15:17:10;13.40;65.70
29431;DHT22;16404;49.902;10.074;2023-04-15T15:19:55;13.40;65.90
29431;DHT22;16404;49.902;10.074;2023-04-15T15:22:40;13.30;65.80
29431;DHT22;16404;49.902;10.074;2023-04-15T15:25:25;13.40;65.90
29431;DHT22;16404;49.902;10.074;2023-04-15T15:28:10;13.30;65.90
29431;DHT22;16404;49.902;10.074;2023-04-15T15:30:55;13.20;65.90
29431;DHT22;16404;49.902;10.074;2023-04-15T15:33:39;13.20;65.90
29431;DHT22;16404;49.902;10.074;2023-04-15T15:36:24;13.20;66.10
29431;DHT22;16404;49.902;10.074;2023-04-15T15:39:10;13.20;66.20
29431;DHT22;16404;49.902;10.074;2023-04-15T15:41:54;13.20;66.10
29431;DHT22;16404;49.902;10.074;2023-04-15T15:44:39;13.10;66.20
29431;DHT22;16404;49.902;10.074;2023-04-15T15:47:24;13.10;66.40
29431;DHT22;16404;49.902;10.074;2023-04-15T15:50:12;13.10;66.60
29431;DHT22;16404;49.902;10.074;2023-04-15T15:52:57;13.10;66.80
29431;DHT22;16404;49.902;10.074;2023-04-15T15:55:42;13.10;66.80
29431;DHT22;16404;49.902;10.074;2023-04-15T15:58:27;13.10;67.00
29431;DHT22;16404;49.902;10.074;2023-04-15T16:01:11;13.10;67.00
29431;DHT22;16404;49.902;10.074;2023-04-15T16:03:56;13.10;67.00
29431;DHT22;16404;49.902;10.074;2023-04-15T16:06:41;13.10;67.10
29431;DHT22;16404;49.902;10.074;2023-04-15T16:09:27;13.10;67.00
29431;DHT22;16404;49.902;10.074;2023-04-15T16:12:12;13.10;67.10
29431;DHT22;16404;49.902;10.074;2023-04-15T16:14:56;13.10;67.20
29431;DHT22;16404;49.902;10.074;2023-04-15T16:17:41;13.10;67.30
29431;DHT22;16404;49.902;10.074;2023-04-15T16:20:26;13.10;67.10
29431;DHT22;16404;49.902;10.074;2023-04-15T16:23:13;13.10;67.00
29431;DHT22;16404;49.902;10.074;2023-04-15T16:25:58;13.10;67.00
29431;DHT22;16404;49.902;10.074;2023-04-15T16:28:43;13.10;66.80
29431;DHT22;16404;49.902;10.074;2023-04-15T16:31:28;13.10;66.90
29431;DHT22;16404;49.902;10.074;2023-04-15T16:34:13;13.20;66.90
29431;DHT22;16404;49.902;10.074;2023-04-15T16:36:59;13.20;66.80
29431;DHT22;16404;49.902;10.074;2023-04-15T16:39:44;13.20;66.80
29431;DHT22;16404;49.902;10.074;2023-04-15T16:42:28;13.20;66.70
29431;DHT22;16404;49.902;10.074;2023-04-15T16:45:13;13.20;66.70
29431;DHT22;16404;49.902;10.074;2023-04-15T16:47:57;13.20;66.70
29431;DHT22;16404;49.902;10.074;2023-04-15T16:50:46;13.10;66.70
29431;DHT22;16404;49.902;10.074;2023-04-15T16:53:31;13.10;67.00
29431;DHT22;16404;49.902;10.074;2023-04-15T16:56:15;13.00;67.10
29431;DHT22;16404;49.902;10.074;2023-04-15T16:59:00;13.00;67.10
29431;DHT22;16404;49.902;10.074;2023-04-15T17:01:45;13.10;67.30
29431;DHT22;16404;49.902;10.074;2023-04-15T17:04:29;13.10;67.30
29431;DHT22;16404;49.902;10.074;2023-04-15T17:07:14;13.10;67.40
29431;DHT22;16404;49.902;10.074;2023-04-15T17:09:58;13.10;67.50
29431;DHT22;16404;49.902;10.074;2023-04-15T17:12:43;13.10;67.40
29431;DHT22;16404;49.902;10.074;2023-04-15T17:15:28;13.10;67.40